Denver, Colorado
Traffic Map
Current Weather Conditions
Denver, Colorado
Scattered Clouds
Scattered Clouds
10°
Feels Like: 8°
Wind Chill: Ceiling: Unl
Heat Index: 10° Visibility: 10mi
Dew Point: Wind: 7mph
Humidity: 83% Direction: 200° (SSW)
Pressure: 30.15in Gusts: 0mph
Raw Report DataKBKF 271258Z 20006KT 10SM FEW090 FEW140 SCT220 10/07 A3015 RMK AO2A SLP150 T00990072
Traffic Incident Summary
Active as of:
Severity:
Category:
InformationThere was an issue retrieving the traffic information for this location. Please try a different location or try again shortly.
Advertisements
Track Severe Weather on mobile